Noelville, Canada
Current Conditions -  °F | °C
As of 4:00 AM on Thursday 18 Dec 2014 (Local Time) from CYSB Reporting Station
Overcast Overcast  
Wind Chill: -1°   Ceiling: 1000
Heat Index: 14°   Visibility: 15mi
Dew Point: 10°   Wind: 14mph
Humidity: 86%   Direction: 360°N
Pressure: 30.04"   Gusts: NA
Location:  46.13°N, 80.43°W
Report Text: CYSB 180900Z 36012KT 15SM OVC010 M10/M12 A3004 RMK SC8 SLP197
Loading
Personal Weather Stations






























Interactive Weather Map New forecast layout! Learn more

10-Day Weather Forecast

Advertisements
Track Severe Weather on mobile